sensor_id;sensor_type;location;lat;lon;timestamp;temperature;humidity
49042;DHT22;34859;51.608;11.462;2022-10-22T00:00:09;11.90;99.90
49042;DHT22;34859;51.608;11.462;2022-10-22T00:02:53;11.80;99.90
49042;DHT22;34859;51.608;11.462;2022-10-22T00:05:37;11.70;99.90
49042;DHT22;34859;51.608;11.462;2022-10-22T00:08:21;11.70;99.90
49042;DHT22;34859;51.608;11.462;2022-10-22T00:11:11;11.80;99.90
49042;DHT22;34859;51.608;11.462;2022-10-22T00:13:57;11.90;99.90
49042;DHT22;34859;51.608;11.462;2022-10-22T00:16:41;11.90;99.90
49042;DHT22;34859;51.608;11.462;2022-10-22T00:19:26;11.90;99.90
49042;DHT22;34859;51.608;11.462;2022-10-22T00:22:11;12.10;99.90
49042;DHT22;34859;51.608;11.462;2022-10-22T00:24:55;12.10;99.90
49042;DHT22;34859;51.608;11.462;2022-10-22T00:27:39;12.00;99.90
49042;DHT22;34859;51.608;11.462;2022-10-22T00:30:23;12.10;99.90
49042;DHT22;34859;51.608;11.462;2022-10-22T00:33:07;12.10;99.90
49042;DHT22;34859;51.608;11.462;2022-10-22T00:35:52;12.10;99.90
49042;DHT22;34859;51.608;11.462;2022-10-22T00:38:36;12.10;99.90
49042;DHT22;34859;51.608;11.462;2022-10-22T00:41:20;12.10;99.90
49042;DHT22;34859;51.608;11.462;2022-10-22T00:44:06;12.10;99.90
49042;DHT22;34859;51.608;11.462;2022-10-22T00:46:50;12.00;99.90
49042;DHT22;34859;51.608;11.462;2022-10-22T00:49:34;12.00;99.90
49042;DHT22;34859;51.608;11.462;2022-10-22T00:52:19;12.00;99.90
49042;DHT22;34859;51.608;11.462;2022-10-22T00:55:04;12.00;99.90
49042;DHT22;34859;51.608;11.462;2022-10-22T00:57:49;12.00;99.90
49042;DHT22;34859;51.608;11.462;2022-10-22T01:00:33;12.00;99.90
49042;DHT22;34859;51.608;11.462;2022-10-22T01:03:17;11.90;99.90
49042;DHT22;34859;51.608;11.462;2022-10-22T01:06:03;11.80;99.90
49042;DHT22;34859;51.608;11.462;2022-10-22T01:12:02;12.00;99.90
49042;DHT22;34859;51.608;11.462;2022-10-22T01:27:29;12.20;99.90
49042;DHT22;34859;51.608;11.462;2022-10-22T01:30:15;12.10;99.90
49042;DHT22;34859;51.608;11.462;2022-10-22T01:33:04;12.00;99.90
49042;DHT22;34859;51.608;11.462;2022-10-22T01:35:49;11.90;99.90
49042;DHT22;34859;51.608;11.462;2022-10-22T01:38:35;11.80;99.90
49042;DHT22;34859;51.608;11.462;2022-10-22T01:41:20;11.80;99.90
49042;DHT22;34859;51.608;11.462;2022-10-22T01:44:04;11.90;99.90
49042;DHT22;34859;51.608;11.462;2022-10-22T01:46:50;12.10;99.90
49042;DHT22;34859;51.608;11.462;2022-10-22T02:04:57;12.10;99.90
49042;DHT22;34859;51.608;11.462;2022-10-22T02:07:40;12.10;99.90
49042;DHT22;34859;51.608;11.462;2022-10-22T02:10:25;12.10;99.90
49042;DHT22;34859;51.608;11.462;2022-10-22T02:13:17;12.10;99.90
49042;DHT22;34859;51.608;11.462;2022-10-22T02:16:04;12.10;99.90
49042;DHT22;34859;51.608;11.462;2022-10-22T02:18:51;12.00;99.90
49042;DHT22;34859;51.608;11.462;2022-10-22T02:21:37;12.00;99.90
49042;DHT22;34859;51.608;11.462;2022-10-22T02:24:21;12.30;99.90
49042;DHT22;34859;51.608;11.462;2022-10-22T02:30:04;12.30;99.90
49042;DHT22;34859;51.608;11.462;2022-10-22T02:33:08;12.30;99.90
49042;DHT22;34859;51.608;11.462;2022-10-22T02:35:54;12.30;99.90
49042;DHT22;34859;51.608;11.462;2022-10-22T02:38:39;12.30;99.90
49042;DHT22;34859;51.608;11.462;2022-10-22T02:41:24;12.40;99.90
49042;DHT22;34859;51.608;11.462;2022-10-22T02:44:10;12.50;99.90
49042;DHT22;34859;51.608;11.462;2022-10-22T02:46:54;12.60;99.90
49042;DHT22;34859;51.608;11.462;2022-10-22T02:49:38;12.60;99.90
49042;DHT22;34859;51.608;11.462;2022-10-22T02:52:22;12.60;99.90
49042;DHT22;34859;51.608;11.462;2022-10-22T02:55:07;12.70;99.90
49042;DHT22;34859;51.608;11.462;2022-10-22T02:57:51;12.70;99.90
49042;DHT22;34859;51.608;11.462;2022-10-22T03:00:35;12.60;99.90
49042;DHT22;34859;51.608;11.462;2022-10-22T03:03:19;12.50;99.90
49042;DHT22;34859;51.608;11.462;2022-10-22T03:06:04;12.60;99.90
49042;DHT22;34859;51.608;11.462;2022-10-22T03:08:48;12.60;99.90
49042;DHT22;34859;51.608;11.462;2022-10-22T03:11:33;12.60;99.90
49042;DHT22;34859;51.608;11.462;2022-10-22T03:14:17;12.60;99.90
49042;DHT22;34859;51.608;11.462;2022-10-22T03:17:02;12.60;99.90
49042;DHT22;34859;51.608;11.462;2022-10-22T03:19:46;12.60;99.90
49042;DHT22;34859;51.608;11.462;2022-10-22T03:22:31;12.60;99.90
49042;DHT22;34859;51.608;11.462;2022-10-22T03:25:20;12.60;99.90
49042;DHT22;34859;51.608;11.462;2022-10-22T03:28:07;12.70;99.90
49042;DHT22;34859;51.608;11.462;2022-10-22T03:30:52;12.80;99.90
49042;DHT22;34859;51.608;11.462;2022-10-22T03:33:36;12.70;99.90
49042;DHT22;34859;51.608;11.462;2022-10-22T03:36:20;12.60;99.90
49042;DHT22;34859;51.608;11.462;2022-10-22T03:39:05;12.60;99.90
49042;DHT22;34859;51.608;11.462;2022-10-22T03:41:50;12.50;99.90
49042;DHT22;34859;51.608;11.462;2022-10-22T03:44:36;12.50;99.90
49042;DHT22;34859;51.608;11.462;2022-10-22T03:47:21;12.40;99.90
49042;DHT22;34859;51.608;11.462;2022-10-22T03:50:07;12.50;99.90
49042;DHT22;34859;51.608;11.462;2022-10-22T03:52:52;12.50;99.90
49042;DHT22;34859;51.608;11.462;2022-10-22T03:55:36;12.40;99.90
49042;DHT22;34859;51.608;11.462;2022-10-22T03:58:24;12.50;99.90
49042;DHT22;34859;51.608;11.462;2022-10-22T04:01:09;12.50;99.90
49042;DHT22;34859;51.608;11.462;2022-10-22T04:03:55;12.60;99.90
49042;DHT22;34859;51.608;11.462;2022-10-22T04:06:39;12.60;99.90
49042;DHT22;34859;51.608;11.462;2022-10-22T04:09:23;12.60;99.90
49042;DHT22;34859;51.608;11.462;2022-10-22T04:12:08;12.70;99.90
49042;DHT22;34859;51.608;11.462;2022-10-22T04:14:52;12.70;99.90
49042;DHT22;34859;51.608;11.462;2022-10-22T04:17:37;12.60;99.90
49042;DHT22;34859;51.608;11.462;2022-10-22T04:20:21;12.60;99.90
49042;DHT22;34859;51.608;11.462;2022-10-22T04:23:05;12.50;99.90
49042;DHT22;34859;51.608;11.462;2022-10-22T04:25:49;12.60;99.90
49042;DHT22;34859;51.608;11.462;2022-10-22T04:28:34;12.50;99.90
49042;DHT22;34859;51.608;11.462;2022-10-22T04:31:21;12.50;99.90
49042;DHT22;34859;51.608;11.462;2022-10-22T04:34:05;12.40;99.90
49042;DHT22;34859;51.608;11.462;2022-10-22T04:36:49;12.40;99.90
49042;DHT22;34859;51.608;11.462;2022-10-22T04:39:33;12.40;99.90
49042;DHT22;34859;51.608;11.462;2022-10-22T04:42:17;12.40;99.90
49042;DHT22;34859;51.608;11.462;2022-10-22T04:45:01;12.60;99.90
49042;DHT22;34859;51.608;11.462;2022-10-22T04:47:45;12.50;99.90
49042;DHT22;34859;51.608;11.462;2022-10-22T04:50:29;12.60;99.90
49042;DHT22;34859;51.608;11.462;2022-10-22T04:53:13;12.50;99.90
49042;DHT22;34859;51.608;11.462;2022-10-22T04:59:06;12.50;99.90
49042;DHT22;34859;51.608;11.462;2022-10-22T05:01:51;12.40;99.90
49042;DHT22;34859;51.608;11.462;2022-10-22T05:04:35;12.30;99.90
49042;DHT22;34859;51.608;11.462;2022-10-22T05:07:19;12.20;99.90
49042;DHT22;34859;51.608;11.462;2022-10-22T05:10:03;12.20;99.90
49042;DHT22;34859;51.608;11.462;2022-10-22T05:12:48;12.20;99.90
49042;DHT22;34859;51.608;11.462;2022-10-22T05:15:32;12.30;99.90
49042;DHT22;34859;51.608;11.462;2022-10-22T05:18:17;12.50;99.90
49042;DHT22;34859;51.608;11.462;2022-10-22T05:21:01;12.50;99.90
49042;DHT22;34859;51.608;11.462;2022-10-22T05:23:47;12.60;99.90
49042;DHT22;34859;51.608;11.462;2022-10-22T05:26:32;12.60;99.90
49042;DHT22;34859;51.608;11.462;2022-10-22T05:29:16;12.60;99.90
49042;DHT22;34859;51.608;11.462;2022-10-22T05:32:01;12.70;99.90
49042;DHT22;34859;51.608;11.462;2022-10-22T05:34:45;12.70;99.90
49042;DHT22;34859;51.608;11.462;2022-10-22T05:37:29;12.70;99.90
49042;DHT22;34859;51.608;11.462;2022-10-22T05:40:13;12.70;99.90
49042;DHT22;34859;51.608;11.462;2022-10-22T05:42:57;12.70;99.90
49042;DHT22;34859;51.608;11.462;2022-10-22T05:45:42;12.60;99.90
49042;DHT22;34859;51.608;11.462;2022-10-22T05:48:25;12.50;99.90
49042;DHT22;34859;51.608;11.462;2022-10-22T05:51:11;12.50;99.90
49042;DHT22;34859;51.608;11.462;2022-10-22T05:53:58;12.40;99.90
49042;DHT22;34859;51.608;11.462;2022-10-22T05:56:43;12.30;99.90
49042;DHT22;34859;51.608;11.462;2022-10-22T05:59:27;12.30;99.90
49042;DHT22;34859;51.608;11.462;2022-10-22T06:02:11;12.30;99.90
49042;DHT22;34859;51.608;11.462;2022-10-22T06:04:55;12.30;99.90
49042;DHT22;34859;51.608;11.462;2022-10-22T06:07:39;12.60;99.90
49042;DHT22;34859;51.608;11.462;2022-10-22T06:10:23;12.60;99.90
49042;DHT22;34859;51.608;11.462;2022-10-22T06:13:07;12.50;99.90
49042;DHT22;34859;51.608;11.462;2022-10-22T06:15:51;12.50;99.90
49042;DHT22;34859;51.608;11.462;2022-10-22T06:18:36;12.40;99.90
49042;DHT22;34859;51.608;11.462;2022-10-22T06:21:21;12.30;99.90
49042;DHT22;34859;51.608;11.462;2022-10-22T06:24:05;12.30;99.90
49042;DHT22;34859;51.608;11.462;2022-10-22T06:26:50;12.40;99.90
49042;DHT22;34859;51.608;11.462;2022-10-22T06:29:34;12.50;99.90
49042;DHT22;34859;51.608;11.462;2022-10-22T06:32:18;12.50;99.90
49042;DHT22;34859;51.608;11.462;2022-10-22T06:35:02;12.60;99.90
49042;DHT22;34859;51.608;11.462;2022-10-22T06:37:47;12.60;99.90
49042;DHT22;34859;51.608;11.462;2022-10-22T06:40:32;12.60;99.90
49042;DHT22;34859;51.608;11.462;2022-10-22T06:43:16;12.60;99.90
49042;DHT22;34859;51.608;11.462;2022-10-22T06:46:02;12.60;99.90
49042;DHT22;34859;51.608;11.462;2022-10-22T06:48:52;12.60;99.90
49042;DHT22;34859;51.608;11.462;2022-10-22T06:51:36;12.70;99.90
49042;DHT22;34859;51.608;11.462;2022-10-22T06:54:21;12.70;99.90
49042;DHT22;34859;51.608;11.462;2022-10-22T06:57:05;12.70;99.90
49042;DHT22;34859;51.608;11.462;2022-10-22T06:59:49;12.70;99.90
49042;DHT22;34859;51.608;11.462;2022-10-22T07:02:33;12.70;99.90
49042;DHT22;34859;51.608;11.462;2022-10-22T07:05:18;12.70;99.90
49042;DHT22;34859;51.608;11.462;2022-10-22T07:08:02;12.70;99.90
49042;DHT22;34859;51.608;11.462;2022-10-22T07:10:47;12.80;99.90
49042;DHT22;34859;51.608;11.462;2022-10-22T07:13:31;12.80;99.90
49042;DHT22;34859;51.608;11.462;2022-10-22T07:16:16;12.80;99.90
49042;DHT22;34859;51.608;11.462;2022-10-22T07:19:02;12.80;99.90
49042;DHT22;34859;51.608;11.462;2022-10-22T07:21:47;12.90;99.90
49042;DHT22;34859;51.608;11.462;2022-10-22T07:24:31;12.90;99.90
49042;DHT22;34859;51.608;11.462;2022-10-22T07:27:15;13.00;99.90
49042;DHT22;34859;51.608;11.462;2022-10-22T07:29:59;13.10;99.90
49042;DHT22;34859;51.608;11.462;2022-10-22T07:32:44;13.10;99.90
49042;DHT22;34859;51.608;11.462;2022-10-22T07:35:28;13.20;99.90
49042;DHT22;34859;51.608;11.462;2022-10-22T07:38:12;13.20;99.90
49042;DHT22;34859;51.608;11.462;2022-10-22T07:40:57;13.30;99.90
49042;DHT22;34859;51.608;11.462;2022-10-22T07:43:41;13.30;99.90
49042;DHT22;34859;51.608;11.462;2022-10-22T07:46:26;13.40;99.90
49042;DHT22;34859;51.608;11.462;2022-10-22T07:49:10;13.40;99.90
49042;DHT22;34859;51.608;11.462;2022-10-22T07:51:54;13.50;99.90
49042;DHT22;34859;51.608;11.462;2022-10-22T07:54:40;13.60;99.90
49042;DHT22;34859;51.608;11.462;2022-10-22T07:57:24;13.70;99.90
49042;DHT22;34859;51.608;11.462;2022-10-22T08:00:09;13.70;99.90
49042;DHT22;34859;51.608;11.462;2022-10-22T08:02:53;13.80;99.90
49042;DHT22;34859;51.608;11.462;2022-10-22T08:05:38;13.80;99.90
49042;DHT22;34859;51.608;11.462;2022-10-22T08:08:22;13.80;99.90
49042;DHT22;34859;51.608;11.462;2022-10-22T08:11:08;13.80;99.90
49042;DHT22;34859;51.608;11.462;2022-10-22T08:13:52;13.90;99.90
49042;DHT22;34859;51.608;11.462;2022-10-22T08:16:37;14.00;99.90
49042;DHT22;34859;51.608;11.462;2022-10-22T08:19:21;14.00;99.90
49042;DHT22;34859;51.608;11.462;2022-10-22T08:22:05;14.10;99.90
49042;DHT22;34859;51.608;11.462;2022-10-22T08:24:50;14.20;99.90
49042;DHT22;34859;51.608;11.462;2022-10-22T08:27:34;14.30;99.90
49042;DHT22;34859;51.608;11.462;2022-10-22T08:30:18;14.40;99.90
49042;DHT22;34859;51.608;11.462;2022-10-22T08:33:06;14.40;99.90
49042;DHT22;34859;51.608;11.462;2022-10-22T08:35:51;14.50;99.90
49042;DHT22;34859;51.608;11.462;2022-10-22T08:38:36;14.50;99.90
49042;DHT22;34859;51.608;11.462;2022-10-22T08:41:21;14.60;99.90
49042;DHT22;34859;51.608;11.462;2022-10-22T08:44:39;14.60;99.90
49042;DHT22;34859;51.608;11.462;2022-10-22T08:50:44;14.60;99.90
49042;DHT22;34859;51.608;11.462;2022-10-22T08:53:35;14.70;99.90
49042;DHT22;34859;51.608;11.462;2022-10-22T08:56:22;14.80;99.90
49042;DHT22;34859;51.608;11.462;2022-10-22T08:59:22;14.90;99.90
49042;DHT22;34859;51.608;11.462;2022-10-22T09:08:25;15.30;99.90
49042;DHT22;34859;51.608;11.462;2022-10-22T09:13:54;15.60;99.90
49042;DHT22;34859;51.608;11.462;2022-10-22T09:22:48;15.80;99.90
49042;DHT22;34859;51.608;11.462;2022-10-22T09:25:35;15.90;99.90
49042;DHT22;34859;51.608;11.462;2022-10-22T09:28:20;16.00;99.90
49042;DHT22;34859;51.608;11.462;2022-10-22T09:31:11;16.00;99.90
49042;DHT22;34859;51.608;11.462;2022-10-22T09:33:55;16.00;99.90
49042;DHT22;34859;51.608;11.462;2022-10-22T09:36:42;15.90;99.90
49042;DHT22;34859;51.608;11.462;2022-10-22T09:39:30;15.80;99.90
49042;DHT22;34859;51.608;11.462;2022-10-22T09:42:16;15.90;99.90
49042;DHT22;34859;51.608;11.462;2022-10-22T09:45:02;16.00;99.90
49042;DHT22;34859;51.608;11.462;2022-10-22T09:47:46;16.20;99.90
49042;DHT22;34859;51.608;11.462;2022-10-22T09:50:45;16.20;99.90
49042;DHT22;34859;51.608;11.462;2022-10-22T09:53:34;16.30;99.90
49042;DHT22;34859;51.608;11.462;2022-10-22T09:56:35;16.40;99.90
49042;DHT22;34859;51.608;11.462;2022-10-22T09:59:28;16.40;99.90
49042;DHT22;34859;51.608;11.462;2022-10-22T10:02:20;16.50;99.90
49042;DHT22;34859;51.608;11.462;2022-10-22T10:05:06;16.50;99.90
49042;DHT22;34859;51.608;11.462;2022-10-22T10:07:50;16.40;99.90
49042;DHT22;34859;51.608;11.462;2022-10-22T10:10:45;16.40;99.90
49042;DHT22;34859;51.608;11.462;2022-10-22T10:17:04;16.50;99.90
49042;DHT22;34859;51.608;11.462;2022-10-22T10:20:02;16.60;99.90
49042;DHT22;34859;51.608;11.462;2022-10-22T10:25:57;16.60;99.90
49042;DHT22;34859;51.608;11.462;2022-10-22T10:37:45;16.70;99.90
49042;DHT22;34859;51.608;11.462;2022-10-22T10:40:46;16.70;99.90
49042;DHT22;34859;51.608;11.462;2022-10-22T10:43:36;16.80;99.90
49042;DHT22;34859;51.608;11.462;2022-10-22T10:46:34;16.90;99.90
49042;DHT22;34859;51.608;11.462;2022-10-22T10:49:30;16.90;99.90
49042;DHT22;34859;51.608;11.462;2022-10-22T10:55:46;16.90;99.90
49042;DHT22;34859;51.608;11.462;2022-10-22T11:01:28;17.00;99.90
49042;DHT22;34859;51.608;11.462;2022-10-22T11:07:27;17.00;99.90
49042;DHT22;34859;51.608;11.462;2022-10-22T11:10:27;17.10;99.90
49042;DHT22;34859;51.608;11.462;2022-10-22T11:13:25;17.10;99.90
49042;DHT22;34859;51.608;11.462;2022-10-22T11:19:24;17.20;99.90
49042;DHT22;34859;51.608;11.462;2022-10-22T11:22:13;17.30;99.90
49042;DHT22;34859;51.608;11.462;2022-10-22T11:25:19;17.40;99.90
49042;DHT22;34859;51.608;11.462;2022-10-22T11:28:22;17.60;99.90
49042;DHT22;34859;51.608;11.462;2022-10-22T11:31:13;17.50;99.90
49042;DHT22;34859;51.608;11.462;2022-10-22T11:34:50;17.60;99.90
49042;DHT22;34859;51.608;11.462;2022-10-22T11:37:37;17.80;99.90
49042;DHT22;34859;51.608;11.462;2022-10-22T11:40:32;17.80;99.90
49042;DHT22;34859;51.608;11.462;2022-10-22T11:46:54;17.80;99.90
49042;DHT22;34859;51.608;11.462;2022-10-22T11:49:44;17.80;99.90
49042;DHT22;34859;51.608;11.462;2022-10-22T12:06:53;18.00;99.90
49042;DHT22;34859;51.608;11.462;2022-10-22T12:09:39;18.00;99.90
49042;DHT22;34859;51.608;11.462;2022-10-22T12:12:23;17.90;99.90
49042;DHT22;34859;51.608;11.462;2022-10-22T12:15:26;18.00;99.90
49042;DHT22;34859;51.608;11.462;2022-10-22T12:18:11;18.10;99.90
49042;DHT22;34859;51.608;11.462;2022-10-22T12:20:57;18.10;99.90
49042;DHT22;34859;51.608;11.462;2022-10-22T12:23:43;18.10;99.90
49042;DHT22;34859;51.608;11.462;2022-10-22T12:26:29;18.10;99.90
49042;DHT22;34859;51.608;11.462;2022-10-22T12:29:15;18.20;99.90
49042;DHT22;34859;51.608;11.462;2022-10-22T12:32:03;18.10;99.90
49042;DHT22;34859;51.608;11.462;2022-10-22T12:34:49;18.10;99.90
49042;DHT22;34859;51.608;11.462;2022-10-22T12:37:36;18.00;99.90
49042;DHT22;34859;51.608;11.462;2022-10-22T12:40:24;18.00;99.90
49042;DHT22;34859;51.608;11.462;2022-10-22T15:19:28;17.30;99.90
49042;DHT22;34859;51.608;11.462;2022-10-22T15:57:26;16.70;99.90
49042;DHT22;34859;51.608;11.462;2022-10-22T16:20:21;16.00;99.90
49042;DHT22;34859;51.608;11.462;2022-10-22T16:35:39;15.80;99.90
49042;DHT22;34859;51.608;11.462;2022-10-22T17:18:09;15.00;99.90
49042;DHT22;34859;51.608;11.462;2022-10-22T17:33:42;14.10;99.90
49042;DHT22;34859;51.608;11.462;2022-10-22T17:37:44;13.90;99.90
49042;DHT22;34859;51.608;11.462;2022-10-22T17:42:06;13.70;99.90
49042;DHT22;34859;51.608;11.462;2022-10-22T17:46:08;13.60;99.90
49042;DHT22;34859;51.608;11.462;2022-10-22T17:50:12;13.30;99.90
49042;DHT22;34859;51.608;11.462;2022-10-22T17:54:07;13.10;99.90
49042;DHT22;34859;51.608;11.462;2022-10-22T17:58:00;12.90;99.90
49042;DHT22;34859;51.608;11.462;2022-10-22T18:01:48;12.80;99.90
49042;DHT22;34859;51.608;11.462;2022-10-22T18:05:38;12.80;99.90
49042;DHT22;34859;51.608;11.462;2022-10-22T18:09:19;12.70;99.90
49042;DHT22;34859;51.608;11.462;2022-10-22T18:13:05;12.50;99.90
49042;DHT22;34859;51.608;11.462;2022-10-22T18:16:50;12.40;99.90
49042;DHT22;34859;51.608;11.462;2022-10-22T18:20:39;12.30;99.90
49042;DHT22;34859;51.608;11.462;2022-10-22T18:24:30;12.20;99.90
49042;DHT22;34859;51.608;11.462;2022-10-22T18:27:19;12.10;99.90
49042;DHT22;34859;51.608;11.462;2022-10-22T18:30:15;12.10;99.90
49042;DHT22;34859;51.608;11.462;2022-10-22T18:33:42;12.00;99.90
49042;DHT22;34859;51.608;11.462;2022-10-22T18:37:05;11.90;99.90
49042;DHT22;34859;51.608;11.462;2022-10-22T18:40:50;11.80;99.90
49042;DHT22;34859;51.608;11.462;2022-10-22T18:44:32;11.70;99.90
49042;DHT22;34859;51.608;11.462;2022-10-22T18:47:41;11.70;99.90
49042;DHT22;34859;51.608;11.462;2022-10-22T18:50:25;11.60;99.90
49042;DHT22;34859;51.608;11.462;2022-10-22T18:53:12;11.60;99.90
49042;DHT22;34859;51.608;11.462;2022-10-22T18:55:57;11.70;99.90
49042;DHT22;34859;51.608;11.462;2022-10-22T18:58:44;11.70;99.90
49042;DHT22;34859;51.608;11.462;2022-10-22T19:01:28;11.80;99.90
49042;DHT22;34859;51.608;11.462;2022-10-22T19:04:13;11.80;99.90
49042;DHT22;34859;51.608;11.462;2022-10-22T19:06:58;11.90;99.90
49042;DHT22;34859;51.608;11.462;2022-10-22T19:09:42;11.90;99.90
49042;DHT22;34859;51.608;11.462;2022-10-22T19:12:26;12.00;99.90
49042;DHT22;34859;51.608;11.462;2022-10-22T19:15:10;11.80;99.90
49042;DHT22;34859;51.608;11.462;2022-10-22T19:17:55;11.60;99.90
49042;DHT22;34859;51.608;11.462;2022-10-22T19:20:40;11.60;99.90
49042;DHT22;34859;51.608;11.462;2022-10-22T19:23:24;11.50;99.90
49042;DHT22;34859;51.608;11.462;2022-10-22T19:26:11;11.40;99.90
49042;DHT22;34859;51.608;11.462;2022-10-22T19:28:57;11.40;99.90
49042;DHT22;34859;51.608;11.462;2022-10-22T19:31:42;11.10;99.90
49042;DHT22;34859;51.608;11.462;2022-10-22T19:34:27;11.10;99.90
49042;DHT22;34859;51.608;11.462;2022-10-22T19:37:11;11.10;99.90
49042;DHT22;34859;51.608;11.462;2022-10-22T19:39:55;11.10;99.90
49042;DHT22;34859;51.608;11.462;2022-10-22T19:42:40;11.00;99.90
49042;DHT22;34859;51.608;11.462;2022-10-22T19:45:25;11.00;99.90
49042;DHT22;34859;51.608;11.462;2022-10-22T19:48:09;11.10;99.90
49042;DHT22;34859;51.608;11.462;2022-10-22T19:51:01;11.10;99.90
49042;DHT22;34859;51.608;11.462;2022-10-22T19:53:47;11.10;99.90
49042;DHT22;34859;51.608;11.462;2022-10-22T19:56:33;11.10;99.90
49042;DHT22;34859;51.608;11.462;2022-10-22T19:59:18;10.90;99.90
49042;DHT22;34859;51.608;11.462;2022-10-22T20:02:10;10.80;99.90
49042;DHT22;34859;51.608;11.462;2022-10-22T20:04:56;10.70;99.90
49042;DHT22;34859;51.608;11.462;2022-10-22T20:07:40;10.60;99.90
49042;DHT22;34859;51.608;11.462;2022-10-22T20:10:24;10.70;99.90
49042;DHT22;34859;51.608;11.462;2022-10-22T20:13:08;10.70;99.90
49042;DHT22;34859;51.608;11.462;2022-10-22T20:15:52;10.60;99.90
49042;DHT22;34859;51.608;11.462;2022-10-22T20:18:36;10.50;99.90
49042;DHT22;34859;51.608;11.462;2022-10-22T20:21:21;10.30;99.90
49042;DHT22;34859;51.608;11.462;2022-10-22T20:24:06;10.20;99.90
49042;DHT22;34859;51.608;11.462;2022-10-22T20:26:50;10.10;99.90
49042;DHT22;34859;51.608;11.462;2022-10-22T20:29:34;10.00;99.90
49042;DHT22;34859;51.608;11.462;2022-10-22T20:32:19;10.00;99.90
49042;DHT22;34859;51.608;11.462;2022-10-22T20:35:05;10.00;99.90
49042;DHT22;34859;51.608;11.462;2022-10-22T20:37:50;10.00;99.90
49042;DHT22;34859;51.608;11.462;2022-10-22T20:40:35;10.00;99.90
49042;DHT22;34859;51.608;11.462;2022-10-22T20:43:19;10.00;99.90
49042;DHT22;34859;51.608;11.462;2022-10-22T20:46:03;10.10;99.90
49042;DHT22;34859;51.608;11.462;2022-10-22T20:48:53;10.10;99.90
49042;DHT22;34859;51.608;11.462;2022-10-22T20:51:35;10.30;99.90
49042;DHT22;34859;51.608;11.462;2022-10-22T20:54:20;10.30;99.90
49042;DHT22;34859;51.608;11.462;2022-10-22T20:57:04;10.20;99.90
49042;DHT22;34859;51.608;11.462;2022-10-22T20:59:48;10.00;99.90
49042;DHT22;34859;51.608;11.462;2022-10-22T21:02:35;9.90;99.90
49042;DHT22;34859;51.608;11.462;2022-10-22T21:05:19;9.90;99.90
49042;DHT22;34859;51.608;11.462;2022-10-22T21:08:03;9.90;99.90
49042;DHT22;34859;51.608;11.462;2022-10-22T21:10:48;9.90;99.90
49042;DHT22;34859;51.608;11.462;2022-10-22T21:13:33;9.90;99.90
49042;DHT22;34859;51.608;11.462;2022-10-22T21:16:18;9.80;99.90
49042;DHT22;34859;51.608;11.462;2022-10-22T21:19:02;9.70;99.90
49042;DHT22;34859;51.608;11.462;2022-10-22T21:21:47;9.50;99.90
49042;DHT22;34859;51.608;11.462;2022-10-22T21:24:31;9.50;99.90
49042;DHT22;34859;51.608;11.462;2022-10-22T21:27:16;9.60;99.90
49042;DHT22;34859;51.608;11.462;2022-10-22T21:30:00;9.80;99.90
49042;DHT22;34859;51.608;11.462;2022-10-22T21:32:44;10.00;99.90
49042;DHT22;34859;51.608;11.462;2022-10-22T21:35:28;9.70;99.90
49042;DHT22;34859;51.608;11.462;2022-10-22T21:38:12;9.60;99.90
49042;DHT22;34859;51.608;11.462;2022-10-22T21:40:56;9.60;99.90
49042;DHT22;34859;51.608;11.462;2022-10-22T21:43:42;9.60;99.90
49042;DHT22;34859;51.608;11.462;2022-10-22T21:46:27;9.50;99.90
49042;DHT22;34859;51.608;11.462;2022-10-22T21:49:12;9.40;99.90
49042;DHT22;34859;51.608;11.462;2022-10-22T21:51:57;9.50;99.90
49042;DHT22;34859;51.608;11.462;2022-10-22T21:54:43;9.50;99.90
49042;DHT22;34859;51.608;11.462;2022-10-22T21:57:27;9.50;99.90
49042;DHT22;34859;51.608;11.462;2022-10-22T22:00:12;9.40;99.90
49042;DHT22;34859;51.608;11.462;2022-10-22T22:02:56;9.40;99.90
49042;DHT22;34859;51.608;11.462;2022-10-22T22:05:41;9.40;99.90
49042;DHT22;34859;51.608;11.462;2022-10-22T22:08:26;9.40;99.90
49042;DHT22;34859;51.608;11.462;2022-10-22T22:11:11;9.30;99.90
49042;DHT22;34859;51.608;11.462;2022-10-22T22:13:56;9.40;99.90
49042;DHT22;34859;51.608;11.462;2022-10-22T22:16:41;9.50;99.90
49042;DHT22;34859;51.608;11.462;2022-10-22T22:19:25;9.50;99.90
49042;DHT22;34859;51.608;11.462;2022-10-22T22:22:09;9.50;99.90
49042;DHT22;34859;51.608;11.462;2022-10-22T22:24:54;9.60;99.90
49042;DHT22;34859;51.608;11.462;2022-10-22T22:27:35;9.70;99.90
49042;DHT22;34859;51.608;11.462;2022-10-22T22:30:20;9.80;99.90
49042;DHT22;34859;51.608;11.462;2022-10-22T22:33:04;9.60;99.90
49042;DHT22;34859;51.608;11.462;2022-10-22T22:35:48;9.40;99.90
49042;DHT22;34859;51.608;11.462;2022-10-22T22:38:32;9.50;99.90
49042;DHT22;34859;51.608;11.462;2022-10-22T22:41:17;9.50;99.90
49042;DHT22;34859;51.608;11.462;2022-10-22T22:44:01;9.50;99.90
49042;DHT22;34859;51.608;11.462;2022-10-22T22:46:46;9.40;99.90
49042;DHT22;34859;51.608;11.462;2022-10-22T22:49:30;9.40;99.90
49042;DHT22;34859;51.608;11.462;2022-10-22T22:52:14;9.40;99.90
49042;DHT22;34859;51.608;11.462;2022-10-22T22:54:58;9.30;99.90
49042;DHT22;34859;51.608;11.462;2022-10-22T22:57:42;9.30;99.90
49042;DHT22;34859;51.608;11.462;2022-10-22T23:00:26;9.20;99.90
49042;DHT22;34859;51.608;11.462;2022-10-22T23:03:10;9.20;99.90
49042;DHT22;34859;51.608;11.462;2022-10-22T23:05:54;9.10;99.90
49042;DHT22;34859;51.608;11.462;2022-10-22T23:08:38;8.90;99.90
49042;DHT22;34859;51.608;11.462;2022-10-22T23:11:24;8.90;99.90
49042;DHT22;34859;51.608;11.462;2022-10-22T23:14:11;9.10;99.90
49042;DHT22;34859;51.608;11.462;2022-10-22T23:16:56;9.20;99.90
49042;DHT22;34859;51.608;11.462;2022-10-22T23:19:41;9.00;99.90
49042;DHT22;34859;51.608;11.462;2022-10-22T23:22:25;8.80;99.90
49042;DHT22;34859;51.608;11.462;2022-10-22T23:25:09;9.00;99.90
49042;DHT22;34859;51.608;11.462;2022-10-22T23:27:53;9.20;99.90
49042;DHT22;34859;51.608;11.462;2022-10-22T23:30:41;9.20;99.90
49042;DHT22;34859;51.608;11.462;2022-10-22T23:33:26;9.00;99.90
49042;DHT22;34859;51.608;11.462;2022-10-22T23:36:11;9.00;99.90
49042;DHT22;34859;51.608;11.462;2022-10-22T23:38:55;9.00;99.90
49042;DHT22;34859;51.608;11.462;2022-10-22T23:41:40;9.10;99.90
49042;DHT22;34859;51.608;11.462;2022-10-22T23:44:24;9.00;99.90
49042;DHT22;34859;51.608;11.462;2022-10-22T23:47:09;9.00;99.90
49042;DHT22;34859;51.608;11.462;2022-10-22T23:49:53;9.10;99.90